Time;durP1;ratioP1;P1;durP2;ratioP2;P2;SDS_P1;SDS_P2;PMS_P1;PMS_P2;Temp;Humidity;BMP_temperature;BMP_pressure;BME280_temperature;BME280_humidity;BME280_pressure;Samples;Min_cycle;Max_cycle;Signal;HPM_P1;HPM_P2
2023/10/07 00:01:52;;;;;;;29.35;7.63;;;;;;;;;;5100094;28;20436;-77
2023/10/07 00:04:18;;;;;;;29.80;7.30;;;;;;;;;;5100780;28;20468;-76
2023/10/07 00:06:45;;;;;;;23.58;7.28;;;;;;;;;;5099112;28;20464;-78
2023/10/07 00:09:19;;;;;;;28.38;7.03;;;;;;;;;;5094669;28;20008;-76
2023/10/07 00:11:47;;;;;;;25.58;7.25;;;;;;;;;;5095045;28;20360;-76
2023/10/07 00:14:14;;;;;;;29.15;7.15;;;;;;;;;;5095021;28;20012;-78
2023/10/07 00:16:43;;;;;;;23.50;7.30;;;;;;;;;;5095392;28;20040;-77
2023/10/07 00:19:09;;;;;;;18.48;6.60;;;;;;;;;;5095085;28;20034;-76
2023/10/07 00:24:37;;;;;;;24.63;5.90;;;;;;;;;;5081180;28;20032;-77
2023/10/07 00:27:05;;;;;;;20.52;6.15;;;;;;;;;;5094257;28;20028;-76
2023/10/07 00:29:53;;;;;;;15.10;6.00;;;;;;;;;;5094291;28;20020;-77
2023/10/07 00:32:17;;;;;;;22.65;6.50;;;;;;;;;;5094033;28;20028;-76
2023/10/07 00:34:44;;;;;;;19.98;6.00;;;;;;;;;;5094870;28;20115;-76
2023/10/07 00:37:10;;;;;;;21.35;6.65;;;;;;;;;;5095016;28;20017;-77
2023/10/07 00:39:38;;;;;;;18.08;6.45;;;;;;;;;;5103648;28;20028;-76
2023/10/07 00:42:07;;;;;;;18.05;6.80;;;;;;;;;;5111965;28;20020;-77
2023/10/07 00:44:34;;;;;;;23.60;7.15;;;;;;;;;;5118181;28;20106;-77
2023/10/07 00:47:11;;;;;;;19.25;6.57;;;;;;;;;;5117979;28;20032;-77
2023/10/07 00:52:25;;;;;;;20.17;7.32;;;;;;;;;;5093666;28;20032;-77
2023/10/07 00:54:58;;;;;;;20.40;6.68;;;;;;;;;;5093395;28;20475;-77
2023/10/07 00:57:29;;;;;;;19.85;7.38;;;;;;;;;;5094260;28;20034;-77
2023/10/07 00:59:57;;;;;;;20.92;7.80;;;;;;;;;;5096669;28;20103;-78
2023/10/07 01:02:30;;;;;;;19.13;6.85;;;;;;;;;;5094943;28;20141;-78
2023/10/07 01:05:21;;;;;;;27.75;6.90;;;;;;;;;;5095040;28;20039;-77
2023/10/07 01:07:53;;;;;;;26.20;7.82;;;;;;;;;;5093947;28;20034;-77
2023/10/07 01:10:24;;;;;;;30.13;8.60;;;;;;;;;;5094287;28;20082;-76
2023/10/07 01:12:51;;;;;;;24.90;8.10;;;;;;;;;;5094117;28;20099;-76
2023/10/07 01:15:24;;;;;;;22.92;7.60;;;;;;;;;;5092811;28;20084;-76
2023/10/07 01:17:56;;;;;;;26.58;7.20;;;;;;;;;;5093983;28;20043;-76
2023/10/07 01:20:22;;;;;;;18.75;6.70;;;;;;;;;;5094038;28;20031;-75
2023/10/07 01:23:02;;;;;;;25.98;7.18;;;;;;;;;;5094076;28;20386;-76
2023/10/07 01:25:29;;;;;;;20.42;5.63;;;;;;;;;;5097055;28;20020;-77
2023/10/07 01:27:55;;;;;;;23.05;6.43;;;;;;;;;;5096043;28;20031;-78
2023/10/07 01:30:28;;;;;;;16.90;5.82;;;;;;;;;;5095788;28;20064;-76
2023/10/07 01:33:02;;;;;;;14.45;5.85;;;;;;;;;;5096759;28;20027;-78
2023/10/07 01:35:32;;;;;;;14.00;5.72;;;;;;;;;;5093550;28;20032;-76
2023/10/07 01:38:07;;;;;;;14.70;5.85;;;;;;;;;;5093186;28;20363;-76
2023/10/07 01:43:19;;;;;;;13.18;4.47;;;;;;;;;;5093510;28;20114;-76
2023/10/07 01:45:47;;;;;;;13.20;4.53;;;;;;;;;;5094702;28;20020;-78
2023/10/07 01:48:13;;;;;;;14.77;4.40;;;;;;;;;;5095228;28;20012;-78
2023/10/07 01:50:40;;;;;;;10.73;4.13;;;;;;;;;;5095170;28;20217;-77
2023/10/07 01:53:07;;;;;;;7.18;3.67;;;;;;;;;;5094742;28;20039;-77
2023/10/07 01:55:42;;;;;;;8.27;4.18;;;;;;;;;;5095191;28;20381;-76
2023/10/07 01:58:13;;;;;;;5.53;2.97;;;;;;;;;;5092999;28;20395;-78
2023/10/07 02:03:23;;;;;;;7.03;2.63;;;;;;;;;;5095666;28;20091;-76
2023/10/07 02:05:49;;;;;;;9.27;3.03;;;;;;;;;;5093146;28;20024;-76
2023/10/07 02:08:22;;;;;;;7.05;2.80;;;;;;;;;;5091667;28;20079;-77
2023/10/07 02:10:49;;;;;;;10.02;3.00;;;;;;;;;;5094943;28;20021;-77
2023/10/07 02:13:19;;;;;;;8.27;2.80;;;;;;;;;;5094524;28;20027;-77
2023/10/07 02:15:48;;;;;;;5.10;2.40;;;;;;;;;;5094292;28;20035;-76
2023/10/07 02:18:17;;;;;;;7.20;2.70;;;;;;;;;;5098752;28;20028;-77
2023/10/07 02:20:52;;;;;;;8.52;3.08;;;;;;;;;;5108713;28;20028;-76
2023/10/07 02:23:37;;;;;;;7.00;2.28;;;;;;;;;;5115329;28;20072;-76
2023/10/07 02:26:07;;;;;;;5.25;2.15;;;;;;;;;;5100535;28;20028;-76
2023/10/07 02:28:34;;;;;;;3.63;1.25;;;;;;;;;;5116830;28;20069;-77
2023/10/07 02:31:07;;;;;;;5.50;1.25;;;;;;;;;;5102516;28;20476;-76
2023/10/07 02:33:41;;;;;;;7.00;1.40;;;;;;;;;;5094029;28;20507;-77
2023/10/07 02:36:10;;;;;;;8.40;2.00;;;;;;;;;;5095506;28;20423;-78
2023/10/07 02:38:39;;;;;;;11.45;1.65;;;;;;;;;;5094689;28;20080;-78
2023/10/07 02:41:16;;;;;;;11.05;1.80;;;;;;;;;;5093852;28;20024;-78
2023/10/07 02:43:43;;;;;;;9.10;1.77;;;;;;;;;;5094723;28;20027;-76
2023/10/07 02:46:22;;;;;;;6.70;1.48;;;;;;;;;;5075305;28;20028;-76
2023/10/07 02:48:48;;;;;;;9.18;1.70;;;;;;;;;;5075071;28;20024;-76
2023/10/07 02:51:14;;;;;;;10.68;1.50;;;;;;;;;;5092773;28;20051;-75
2023/10/07 02:53:41;;;;;;;11.15;1.85;;;;;;;;;;5092881;28;20454;-75
2023/10/07 02:56:16;;;;;;;8.07;1.60;;;;;;;;;;5092256;28;20047;-81
2023/10/07 02:58:51;;;;;;;6.90;1.73;;;;;;;;;;5097793;28;20024;-78
2023/10/07 03:01:25;;;;;;;8.13;2.08;;;;;;;;;;5093261;28;20024;-77
2023/10/07 03:03:51;;;;;;;10.93;2.63;;;;;;;;;;5075586;28;20533;-77
2023/10/07 03:06:17;;;;;;;7.22;1.60;;;;;;;;;;5078106;28;20028;-80
2023/10/07 03:08:59;;;;;;;10.20;1.85;;;;;;;;;;5096541;28;20024;-79
2023/10/07 03:11:35;;;;;;;7.22;1.50;;;;;;;;;;5093973;28;20012;-76
2023/10/07 03:14:03;;;;;;;9.25;1.50;;;;;;;;;;5074893;28;20050;-75
2023/10/07 03:16:29;;;;;;;12.05;1.73;;;;;;;;;;5093239;28;20047;-75
2023/10/07 03:21:21;;;;;;;12.35;1.73;;;;;;;;;;5099045;28;20020;-77
2023/10/07 03:23:48;;;;;;;7.38;1.67;;;;;;;;;;5097327;28;20107;-76
2023/10/07 03:26:18;;;;;;;7.95;1.52;;;;;;;;;;5096943;28;20024;-76
2023/10/07 03:28:54;;;;;;;11.98;1.90;;;;;;;;;;5096815;28;20411;-77
2023/10/07 03:31:28;;;;;;;9.27;1.90;;;;;;;;;;5095526;28;20020;-82
2023/10/07 03:33:58;;;;;;;10.67;2.27;;;;;;;;;;5101094;28;20024;-85
2023/10/07 03:36:31;;;;;;;10.57;3.80;;;;;;;;;;5103118;28;20024;-88
2023/10/07 03:39:16;;;;;;;10.75;1.90;;;;;;;;;;5110670;28;20040;-86
2023/10/07 03:41:51;;;;;;;8.88;1.52;;;;;;;;;;5100353;28;20027;-86
2023/10/07 03:44:18;;;;;;;12.00;1.50;;;;;;;;;;5103487;28;20030;-87
2023/10/07 03:46:47;;;;;;;7.80;1.40;;;;;;;;;;5107939;28;20071;-82
2023/10/07 03:49:15;;;;;;;10.48;1.90;;;;;;;;;;5101786;28;20077;-83
2023/10/07 03:51:41;;;;;;;9.85;1.75;;;;;;;;;;5101343;28;20475;-84
2023/10/07 03:54:11;;;;;;;7.65;1.65;;;;;;;;;;5094002;28;20382;-82
2023/10/07 03:56:38;;;;;;;12.60;1.90;;;;;;;;;;5107248;28;20016;-76
2023/10/07 03:59:05;;;;;;;12.00;2.35;;;;;;;;;;5113736;28;20046;-76
2023/10/07 04:01:35;;;;;;;12.57;2.80;;;;;;;;;;5118205;28;20020;-76
2023/10/07 04:04:01;;;;;;;17.23;3.35;;;;;;;;;;5117067;28;20149;-76
2023/10/07 04:06:31;;;;;;;17.60;2.70;;;;;;;;;;5116086;28;20024;-77
2023/10/07 04:09:05;;;;;;;20.50;3.28;;;;;;;;;;5115593;28;20027;-75
2023/10/07 04:11:33;;;;;;;21.77;3.72;;;;;;;;;;5115302;28;20044;-76
2023/10/07 04:14:05;;;;;;;25.73;3.65;;;;;;;;;;5115482;28;20382;-75
2023/10/07 04:16:33;;;;;;;24.67;3.92;;;;;;;;;;5117351;28;20024;-76
2023/10/07 04:21:44;;;;;;;25.75;4.30;;;;;;;;;;5122202;28;20028;-80
2023/10/07 04:24:13;;;;;;;26.17;4.35;;;;;;;;;;5116809;28;20032;-75
2023/10/07 04:26:40;;;;;;;24.58;3.90;;;;;;;;;;5115344;28;20016;-74
2023/10/07 04:29:14;;;;;;;23.02;3.38;;;;;;;;;;5116268;28;20027;-76
2023/10/07 04:31:47;;;;;;;23.15;3.92;;;;;;;;;;5115570;28;20032;-76
2023/10/07 04:34:18;;;;;;;28.80;3.45;;;;;;;;;;5115718;28;20012;-77
2023/10/07 04:39:31;;;;;;;30.13;4.47;;;;;;;;;;5115696;28;20023;-76
2023/10/07 04:41:58;;;;;;;24.92;3.53;;;;;;;;;;5115340;28;20020;-75
2023/10/07 04:47:34;;;;;;;22.23;3.50;;;;;;;;;;5085543;28;20127;-76
2023/10/07 04:52:42;;;;;;;19.73;3.40;;;;;;;;;;5115411;28;20035;-75
2023/10/07 04:55:15;;;;;;;27.63;3.88;;;;;;;;;;5115085;28;20505;-75
2023/10/07 04:57:44;;;;;;;23.15;3.63;;;;;;;;;;5114734;28;20467;-76
2023/10/07 05:00:30;;;;;;;26.58;3.38;;;;;;;;;;5116994;28;20035;-77
2023/10/07 05:03:16;;;;;;;22.23;2.88;;;;;;;;;;5116863;28;20081;-76
2023/10/07 05:05:45;;;;;;;26.70;3.50;;;;;;;;;;5116169;28;20375;-76
2023/10/07 05:08:11;;;;;;;22.63;2.95;;;;;;;;;;5115812;28;20080;-76
2023/10/07 05:10:41;;;;;;;20.13;2.67;;;;;;;;;;5117157;28;20070;-76
2023/10/07 05:13:07;;;;;;;26.13;3.60;;;;;;;;;;5116104;28;20016;-76
2023/10/07 05:15:39;;;;;;;27.10;3.88;;;;;;;;;;5097941;28;20030;-76
2023/10/07 05:18:12;;;;;;;21.55;3.00;;;;;;;;;;5115815;28;20069;-76
2023/10/07 05:20:38;;;;;;;22.52;3.22;;;;;;;;;;5098220;28;20042;-75
2023/10/07 05:23:06;;;;;;;25.50;3.40;;;;;;;;;;5114791;28;20470;-75
2023/10/07 05:25:35;;;;;;;24.08;3.97;;;;;;;;;;5114227;28;20023;-75
2023/10/07 05:28:10;;;;;;;29.63;6.30;;;;;;;;;;5114257;28;20068;-76
2023/10/07 05:30:36;;;;;;;;;;;;;;;;;;5115452;28;20406;-76
2023/10/07 05:33:08;;;;;;;25.42;3.65;;;;;;;;;;5114199;28;20006;-74
2023/10/07 05:35:37;;;;;;;28.95;3.55;;;;;;;;;;5114007;28;20105;-74
2023/10/07 05:38:09;;;;;;;22.63;3.10;;;;;;;;;;5113936;28;20383;-77
2023/10/07 05:40:36;;;;;;;26.40;3.67;;;;;;;;;;5100571;28;20020;-76
2023/10/07 05:43:02;;;;;;;24.40;3.55;;;;;;;;;;5093659;28;20050;-76
2023/10/07 05:45:28;;;;;;;32.03;4.07;;;;;;;;;;5097529;28;20032;-79
2023/10/07 05:47:54;;;;;;;23.75;3.80;;;;;;;;;;5095652;28;20024;-78
2023/10/07 05:50:22;;;;;;;32.95;4.32;;;;;;;;;;5095129;28;20067;-76
2023/10/07 05:52:48;;;;;;;20.23;3.30;;;;;;;;;;5096996;28;20023;-75
2023/10/07 05:55:15;;;;;;;27.45;3.35;;;;;;;;;;5097009;28;20032;-75
2023/10/07 05:57:41;;;;;;;31.30;3.42;;;;;;;;;;5090802;28;20020;-76
2023/10/07 06:00:10;;;;;;;25.88;4.95;;;;;;;;;;5094078;28;20028;-76
2023/10/07 06:02:37;;;;;;;27.90;3.67;;;;;;;;;;5094341;28;20146;-77
2023/10/07 06:05:06;;;;;;;23.20;2.78;;;;;;;;;;5097517;28;20024;-76
2023/10/07 06:07:32;;;;;;;24.23;2.90;;;;;;;;;;5086071;28;20521;-76
2023/10/07 06:10:02;;;;;;;26.75;2.95;;;;;;;;;;5096245;28;20103;-79
2023/10/07 06:12:28;;;;;;;24.33;3.10;;;;;;;;;;5099928;28;20023;-79
2023/10/07 06:14:54;;;;;;;31.33;3.75;;;;;;;;;;5100835;28;20466;-79
2023/10/07 06:17:20;;;;;;;25.13;3.00;;;;;;;;;;5104987;28;20399;-80
2023/10/07 06:19:46;;;;;;;14.00;2.85;;;;;;;;;;5099544;28;20024;-82
2023/10/07 06:22:12;;;;;;;26.98;3.53;;;;;;;;;;5109290;28;20054;-77
2023/10/07 06:24:42;;;;;;;22.52;3.10;;;;;;;;;;5095704;28;20058;-77
2023/10/07 06:27:11;;;;;;;27.42;3.60;;;;;;;;;;5094068;28;20373;-76
2023/10/07 06:29:43;;;;;;;15.45;2.80;;;;;;;;;;5093008;28;20391;-76
2023/10/07 06:32:25;;;;;;;23.08;3.42;;;;;;;;;;5092566;28;20044;-76
2023/10/07 06:34:54;;;;;;;22.15;2.60;;;;;;;;;;5093940;28;20017;-78
2023/10/07 06:37:30;;;;;;;25.77;3.15;;;;;;;;;;5093770;28;20016;-75
2023/10/07 06:40:00;;;;;;;20.15;2.85;;;;;;;;;;5095244;28;20016;-75
2023/10/07 06:42:26;;;;;;;21.15;2.45;;;;;;;;;;5096942;28;20036;-75
2023/10/07 06:44:56;;;;;;;16.45;2.40;;;;;;;;;;5095485;28;20016;-76
2023/10/07 06:47:23;;;;;;;16.48;2.95;;;;;;;;;;5094831;28;20024;-77
2023/10/07 06:49:52;;;;;;;23.30;2.97;;;;;;;;;;5094491;28;20012;-79
2023/10/07 06:52:20;;;;;;;25.15;3.00;;;;;;;;;;5094112;28;20497;-76
2023/10/07 06:54:47;;;;;;;18.10;3.25;;;;;;;;;;5095535;28;20020;-75
2023/10/07 06:57:14;;;;;;;14.95;2.20;;;;;;;;;;5091983;28;20199;-76
2023/10/07 06:59:40;;;;;;;15.35;2.60;;;;;;;;;;5092204;28;20026;-75
2023/10/07 07:02:09;;;;;;;20.17;3.40;;;;;;;;;;5091684;28;20039;-76
2023/10/07 07:04:36;;;;;;;15.95;2.40;;;;;;;;;;5092066;28;20532;-75
2023/10/07 07:07:11;;;;;;;16.30;2.88;;;;;;;;;;5092333;28;20036;-75
2023/10/07 07:09:41;;;;;;;15.13;2.60;;;;;;;;;;5094117;28;20016;-75
2023/10/07 07:12:09;;;;;;;12.50;2.60;;;;;;;;;;5093870;28;20084;-76
2023/10/07 07:14:35;;;;;;;15.63;3.00;;;;;;;;;;5092738;28;20444;-77
2023/10/07 07:20:19;;;;;;;16.67;2.80;;;;;;;;;;5093850;28;20515;-77
2023/10/07 07:22:46;;;;;;;19.48;3.53;;;;;;;;;;5096563;28;20040;-76
2023/10/07 07:25:30;;;;;;;17.17;3.97;;;;;;;;;;5095043;28;20043;-76
2023/10/07 07:27:59;;;;;;;24.10;6.60;;;;;;;;;;5100282;28;20020;-76
2023/10/07 07:30:32;;;;;;;16.88;3.47;;;;;;;;;;5093398;28;20467;-76
2023/10/07 07:32:59;;;;;;;12.00;2.90;;;;;;;;;;5098668;28;20081;-76
2023/10/07 07:35:39;;;;;;;13.57;2.35;;;;;;;;;;5110611;28;20016;-74
2023/10/07 07:38:22;;;;;;;12.32;2.28;;;;;;;;;;5097479;28;20024;-78
2023/10/07 07:40:49;;;;;;;15.00;2.75;;;;;;;;;;5094323;28;20024;-77
2023/10/07 07:43:19;;;;;;;11.05;2.40;;;;;;;;;;5094079;28;20036;-77
2023/10/07 07:45:46;;;;;;;14.18;3.83;;;;;;;;;;5092457;28;20016;-77
2023/10/07 07:48:14;;;;;;;15.02;2.45;;;;;;;;;;5092755;28;20020;-76
2023/10/07 07:50:43;;;;;;;13.85;2.75;;;;;;;;;;5092430;28;20078;-76
2023/10/07 07:53:09;;;;;;;11.88;2.42;;;;;;;;;;5092142;28;20017;-75
2023/10/07 07:55:37;;;;;;;12.07;2.63;;;;;;;;;;5092300;28;20024;-76
2023/10/07 07:58:03;;;;;;;11.38;2.65;;;;;;;;;;5092030;28;20047;-76
2023/10/07 08:00:31;;;;;;;9.68;2.92;;;;;;;;;;5091774;28;20039;-75
2023/10/07 08:02:58;;;;;;;15.38;4.85;;;;;;;;;;5091647;28;20020;-77
2023/10/07 08:05:28;;;;;;;10.90;2.90;;;;;;;;;;5094152;28;20016;-80
2023/10/07 08:07:54;;;;;;;7.78;2.47;;;;;;;;;;5100052;28;20016;-82
2023/10/07 08:10:22;;;;;;;12.65;2.58;;;;;;;;;;5096891;28;20020;-78
2023/10/07 08:12:50;;;;;;;7.63;2.38;;;;;;;;;;5096095;28;20483;-77
2023/10/07 08:15:23;;;;;;;6.20;1.52;;;;;;;;;;5095349;28;20028;-79
2023/10/07 08:17:56;;;;;;;7.63;1.50;;;;;;;;;;5097257;28;20020;-79
2023/10/07 08:20:33;;;;;;;8.38;1.95;;;;;;;;;;5098345;28;20051;-81
2023/10/07 08:23:06;;;;;;;5.35;1.50;;;;;;;;;;5097667;28;20021;-79
2023/10/07 08:28:18;;;;;;;7.13;2.08;;;;;;;;;;5099172;28;20028;-78
2023/10/07 08:30:46;;;;;;;7.32;1.90;;;;;;;;;;5098485;28;20020;-78
2023/10/07 08:33:12;;;;;;;6.10;1.80;;;;;;;;;;5097619;28;20047;-79
2023/10/07 08:35:43;;;;;;;8.48;2.75;;;;;;;;;;5097231;28;20035;-78
2023/10/07 08:38:21;;;;;;;7.95;2.30;;;;;;;;;;5095610;28;20475;-78
2023/10/07 08:40:56;;;;;;;8.65;2.53;;;;;;;;;;5097651;28;20032;-78
2023/10/07 08:43:32;;;;;;;20.90;8.27;;;;;;;;;;5095028;28;20035;-78
2023/10/07 08:46:01;;;;;;;8.73;2.47;;;;;;;;;;5094348;28;20068;-76
2023/10/07 08:48:27;;;;;;;9.07;2.05;;;;;;;;;;5093824;28;20081;-75
2023/10/07 08:50:58;;;;;;;16.25;7.53;;;;;;;;;;5095142;28;20020;-74
2023/10/07 08:53:24;;;;;;;11.23;3.33;;;;;;;;;;5094741;28;20103;-76
2023/10/07 08:55:56;;;;;;;9.35;2.83;;;;;;;;;;5095586;28;20024;-76
2023/10/07 08:58:25;;;;;;;8.45;1.85;;;;;;;;;;5095463;28;20074;-74
2023/10/07 09:00:52;;;;;;;9.85;3.05;;;;;;;;;;5095646;28;20024;-75
2023/10/07 09:03:19;;;;;;;8.38;2.30;;;;;;;;;;5096214;28;20032;-76
2023/10/07 09:05:49;;;;;;;6.00;1.35;;;;;;;;;;5094419;28;20024;-75
2023/10/07 09:08:15;;;;;;;5.93;1.65;;;;;;;;;;5093795;28;20029;-76
2023/10/07 09:10:45;;;;;;;10.82;3.60;;;;;;;;;;5093313;28;20024;-76
2023/10/07 09:13:31;;;;;;;47.80;21.27;;;;;;;;;;5093622;28;20024;-76
2023/10/07 09:16:03;;;;;;;15.07;5.55;;;;;;;;;;5093523;28;20024;-76
2023/10/07 09:18:35;;;;;;;6.32;1.48;;;;;;;;;;5094284;28;20386;-76
2023/10/07 09:21:08;;;;;;;8.02;1.40;;;;;;;;;;5093499;28;20020;-79
2023/10/07 09:23:43;;;;;;;6.50;2.08;;;;;;;;;;5096823;28;20101;-78
2023/10/07 09:26:16;;;;;;;;;;;;;;;;;;5093078;28;20032;-76
2023/10/07 09:28:46;;;;;;;6.85;1.60;;;;;;;;;;5092662;28;19903;-77
2023/10/07 09:31:15;;;;;;;4.75;1.60;;;;;;;;;;5093738;28;20020;-78
2023/10/07 09:33:42;;;;;;;6.25;1.25;;;;;;;;;;5098349;28;20024;-78
2023/10/07 09:41:38;;;;;;;4.30;1.40;;;;;;;;;;5092804;28;20119;-76
2023/10/07 09:44:20;;;;;;;5.90;1.25;;;;;;;;;;5094483;28;20028;-79
2023/10/07 09:46:46;;;;;;;5.28;1.70;;;;;;;;;;5092343;28;20069;-77
2023/10/07 09:49:14;;;;;;;4.50;1.50;;;;;;;;;;5093080;28;20028;-74
2023/10/07 09:51:47;;;;;;;5.60;1.35;;;;;;;;;;5092042;28;20016;-74
2023/10/07 09:54:29;;;;;;;5.68;1.50;;;;;;;;;;5092015;28;20399;-74
2023/10/07 09:57:06;;;;;;;5.38;1.60;;;;;;;;;;5092014;28;20120;-75
2023/10/07 09:59:53;;;;;;;4.63;1.13;;;;;;;;;;5091967;28;20116;-74
2023/10/07 10:02:43;;;;;;;6.50;1.45;;;;;;;;;;5093259;28;20027;-76
2023/10/07 10:05:29;;;;;;;3.53;0.95;;;;;;;;;;5102240;28;20046;-75
2023/10/07 10:08:06;;;;;;;3.88;1.10;;;;;;;;;;5098513;28;20046;-76
2023/10/07 10:10:32;;;;;;;4.93;1.70;;;;;;;;;;5096472;28;20090;-74
2023/10/07 10:18:35;;;;;;;3.25;1.08;;;;;;;;;;5092769;28;20518;-75
2023/10/07 10:21:09;;;;;;;8.13;1.38;;;;;;;;;;5093283;28;20411;-76
2023/10/07 10:23:37;;;;;;;5.55;1.58;;;;;;;;;;5093428;28;20032;-77
2023/10/07 10:29:15;;;;;;;13.10;6.50;;;;;;;;;;5056775;28;20035;-75
2023/10/07 10:31:48;;;;;;;4.95;1.50;;;;;;;;;;5091842;28;20359;-76
2023/10/07 10:34:14;;;;;;;4.05;1.40;;;;;;;;;;5091632;28;20506;-75
2023/10/07 10:36:43;;;;;;;4.15;1.30;;;;;;;;;;5092070;28;20339;-75
2023/10/07 10:39:24;;;;;;;2.30;1.00;;;;;;;;;;5091734;28;20020;-75
2023/10/07 10:41:51;;;;;;;2.65;0.90;;;;;;;;;;5092204;28;20087;-76
2023/10/07 10:44:17;;;;;;;3.03;1.27;;;;;;;;;;5093038;28;20031;-75
2023/10/07 10:46:48;;;;;;;4.13;1.30;;;;;;;;;;5092519;28;20020;-75
2023/10/07 10:49:18;;;;;;;4.28;1.45;;;;;;;;;;5092272;28;20421;-75
2023/10/07 10:51:48;;;;;;;4.70;1.70;;;;;;;;;;5092431;28;20012;-75
2023/10/07 10:54:18;;;;;;;4.40;1.83;;;;;;;;;;5092531;28;20020;-76
2023/10/07 10:56:49;;;;;;;4.22;1.83;;;;;;;;;;5091560;28;20627;-77
2023/10/07 10:59:17;;;;;;;9.05;3.95;;;;;;;;;;5092863;28;20028;-78
2023/10/07 11:01:44;;;;;;;7.13;2.40;;;;;;;;;;5095939;28;20027;-78
2023/10/07 11:04:13;;;;;;;6.82;2.83;;;;;;;;;;5094012;28;20039;-79
2023/10/07 11:06:42;;;;;;;4.43;1.40;;;;;;;;;;5091232;28;20039;-75
2023/10/07 11:09:09;;;;;;;2.65;1.40;;;;;;;;;;5090748;28;20025;-77
2023/10/07 11:11:35;;;;;;;8.55;2.28;;;;;;;;;;5091160;28;20020;-75
2023/10/07 11:14:13;;;;;;;4.97;1.33;;;;;;;;;;5091324;28;20028;-81
2023/10/07 11:16:48;;;;;;;2.75;1.17;;;;;;;;;;5090961;28;20028;-79
2023/10/07 11:19:15;;;;;;;11.73;4.45;;;;;;;;;;5091581;28;20028;-77
2023/10/07 11:21:44;;;;;;;6.72;2.40;;;;;;;;;;5102485;28;20073;-76
2023/10/07 11:24:14;;;;;;;4.18;1.63;;;;;;;;;;5091592;28;20017;-79
2023/10/07 11:26:41;;;;;;;5.30;1.70;;;;;;;;;;5099565;28;20032;-81
2023/10/07 11:29:13;;;;;;;2.83;1.30;;;;;;;;;;5096385;28;20019;-79
2023/10/07 11:31:41;;;;;;;4.18;1.00;;;;;;;;;;5092242;28;20028;-80
2023/10/07 11:34:07;;;;;;;4.38;1.10;;;;;;;;;;5096466;28;20016;-80
2023/10/07 11:36:48;;;;;;;3.90;1.40;;;;;;;;;;5095324;28;20020;-81
2023/10/07 11:39:14;;;;;;;5.10;1.30;;;;;;;;;;5095157;28;20028;-81
2023/10/07 11:41:41;;;;;;;5.13;1.45;;;;;;;;;;5100735;28;20020;-79
2023/10/07 11:44:09;;;;;;;6.75;1.50;;;;;;;;;;5100166;28;20020;-76
2023/10/07 11:46:36;;;;;;;5.40;1.85;;;;;;;;;;5095675;28;20016;-75
2023/10/07 11:49:02;;;;;;;5.32;2.00;;;;;;;;;;5096202;28;20028;-76
2023/10/07 11:51:28;;;;;;;6.68;1.70;;;;;;;;;;5095615;28;20035;-75
2023/10/07 11:53:55;;;;;;;6.72;1.90;;;;;;;;;;5095951;28;20024;-77
2023/10/07 11:56:21;;;;;;;6.75;1.55;;;;;;;;;;5096277;28;20461;-75
2023/10/07 11:58:49;;;;;;;10.13;2.33;;;;;;;;;;5095520;28;20084;-78
2023/10/07 12:01:20;;;;;;;4.75;1.50;;;;;;;;;;5097068;28;20030;-75
2023/10/07 12:03:46;;;;;;;3.40;1.35;;;;;;;;;;5095475;28;20046;-75
2023/10/07 12:06:12;;;;;;;3.97;1.52;;;;;;;;;;5095231;28;20028;-76
2023/10/07 12:08:38;;;;;;;2.75;1.25;;;;;;;;;;5095029;28;20065;-76
2023/10/07 12:11:05;;;;;;;4.68;1.70;;;;;;;;;;5095943;28;20577;-77
2023/10/07 12:13:31;;;;;;;4.57;1.60;;;;;;;;;;5096572;28;20502;-76
2023/10/07 12:16:00;;;;;;;2.88;1.17;;;;;;;;;;5096506;28;20024;-76
2023/10/07 12:18:26;;;;;;;7.15;2.90;;;;;;;;;;5097370;28;20020;-78
2023/10/07 12:20:53;;;;;;;3.20;1.23;;;;;;;;;;5099788;28;20024;-77
2023/10/07 12:23:19;;;;;;;2.08;1.00;;;;;;;;;;5096663;28;20082;-78
2023/10/07 12:25:45;;;;;;;4.28;1.50;;;;;;;;;;5094860;28;20028;-75
2023/10/07 12:28:11;;;;;;;1.67;0.90;;;;;;;;;;5094718;28;20094;-74
2023/10/07 12:30:37;;;;;;;6.07;1.50;;;;;;;;;;5094915;28;20020;-76
2023/10/07 12:33:03;;;;;;;3.85;1.80;;;;;;;;;;5094473;28;20028;-77
2023/10/07 12:35:36;;;;;;;4.13;1.83;;;;;;;;;;5094566;28;20024;-75
2023/10/07 12:38:02;;;;;;;5.35;1.90;;;;;;;;;;5094894;28;20035;-76
2023/10/07 12:40:29;;;;;;;3.30;1.50;;;;;;;;;;5094384;28;20028;-76
2023/10/07 12:42:56;;;;;;;2.80;1.33;;;;;;;;;;5094695;28;20023;-76
2023/10/07 12:45:22;;;;;;;1.58;0.82;;;;;;;;;;5095345;28;20051;-77
2023/10/07 12:47:51;;;;;;;1.63;1.00;;;;;;;;;;5097934;28;20025;-76
2023/10/07 12:50:35;;;;;;;0.50;0.50;;;;;;;;;;5097643;28;20016;-77
2023/10/07 12:53:04;;;;;;;1.63;0.80;;;;;;;;;;5096749;28;20534;-75
2023/10/07 12:55:37;;;;;;;0.95;0.80;;;;;;;;;;5098001;28;20020;-76
2023/10/07 12:58:08;;;;;;;2.17;1.00;;;;;;;;;;5096050;28;20409;-76
2023/10/07 13:00:36;;;;;;;3.35;1.70;;;;;;;;;;5094268;28;20031;-74
2023/10/07 13:03:05;;;;;;;2.28;1.40;;;;;;;;;;5094073;28;20097;-77
2023/10/07 13:05:45;;;;;;;1.83;0.80;;;;;;;;;;5096534;28;20106;-76
2023/10/07 13:08:15;;;;;;;1.10;0.82;;;;;;;;;;5094454;28;20024;-76
2023/10/07 13:10:41;;;;;;;1.42;1.23;;;;;;;;;;5095170;28;20040;-76
2023/10/07 13:13:08;;;;;;;2.47;0.80;;;;;;;;;;5094050;28;20024;-77
2023/10/07 13:15:35;;;;;;;2.83;0.85;;;;;;;;;;5100974;28;20032;-81
2023/10/07 13:18:02;;;;;;;1.10;0.70;;;;;;;;;;5097977;28;20016;-76
2023/10/07 13:20:28;;;;;;;2.25;0.88;;;;;;;;;;5095868;28;20525;-77
2023/10/07 13:22:55;;;;;;;5.95;3.03;;;;;;;;;;5097305;28;20024;-75
2023/10/07 13:25:22;;;;;;;3.90;2.10;;;;;;;;;;5095395;28;20054;-77
2023/10/07 13:27:48;;;;;;;3.22;1.80;;;;;;;;;;5096303;28;20024;-80
2023/10/07 13:30:16;;;;;;;4.53;1.58;;;;;;;;;;5095906;28;20020;-77
2023/10/07 13:32:46;;;;;;;4.40;1.38;;;;;;;;;;5100207;28;20028;-81
2023/10/07 13:35:15;;;;;;;2.45;1.02;;;;;;;;;;5096227;28;20149;-77
2023/10/07 13:37:43;;;;;;;1.38;1.00;;;;;;;;;;5097278;28;20020;-74
2023/10/07 13:40:15;;;;;;;7.38;4.10;;;;;;;;;;5097772;28;20024;-74
2023/10/07 13:42:43;;;;;;;5.60;3.28;;;;;;;;;;5096123;28;20081;-76
2023/10/07 13:45:09;;;;;;;3.85;2.25;;;;;;;;;;5093890;28;20031;-79
2023/10/07 13:47:35;;;;;;;2.42;1.63;;;;;;;;;;5094544;28;20028;-77
2023/10/07 13:50:10;;;;;;;1.52;1.25;;;;;;;;;;5094529;28;20107;-77
2023/10/07 13:52:44;;;;;;;;;;;;;;;;;;5094200;28;20016;-77
2023/10/07 13:55:21;;;;;;;2.92;1.10;;;;;;;;;;5094465;28;19904;-77
2023/10/07 13:57:48;;;;;;;4.78;2.97;;;;;;;;;;5094277;28;20026;-78
2023/10/07 14:02:59;;;;;;;2.92;0.88;;;;;;;;;;5092694;28;20031;-76
2023/10/07 14:05:25;;;;;;;0.55;0.50;;;;;;;;;;5093279;28;20020;-76
2023/10/07 14:07:52;;;;;;;3.33;1.20;;;;;;;;;;5092828;28;20028;-76
2023/10/07 14:10:21;;;;;;;2.22;0.75;;;;;;;;;;5093039;28;20027;-76
2023/10/07 14:12:48;;;;;;;1.67;0.80;;;;;;;;;;5092766;28;20023;-76
2023/10/07 14:15:15;;;;;;;1.00;0.60;;;;;;;;;;5093183;28;20016;-76
2023/10/07 14:17:41;;;;;;;1.77;0.93;;;;;;;;;;5092755;28;20016;-75
2023/10/07 14:20:13;;;;;;;2.92;1.00;;;;;;;;;;5092770;28;20012;-76
2023/10/07 14:22:40;;;;;;;2.40;1.20;;;;;;;;;;5092834;28;20467;-75
2023/10/07 14:25:06;;;;;;;5.10;1.58;;;;;;;;;;5092915;28;20132;-76
2023/10/07 14:27:32;;;;;;;1.92;1.00;;;;;;;;;;5092973;28;20077;-77
2023/10/07 14:29:58;;;;;;;1.10;0.80;;;;;;;;;;5093805;28;20095;-76
2023/10/07 14:32:24;;;;;;;2.25;1.10;;;;;;;;;;5092945;28;20502;-75
2023/10/07 14:34:51;;;;;;;2.10;1.15;;;;;;;;;;5091441;28;20042;-75
2023/10/07 14:37:17;;;;;;;2.00;1.13;;;;;;;;;;5093196;28;20509;-76
2023/10/07 14:39:43;;;;;;;4.30;1.58;;;;;;;;;;5093357;28;20035;-74
2023/10/07 14:42:09;;;;;;;7.22;4.50;;;;;;;;;;5094012;28;20020;-74
2023/10/07 14:44:35;;;;;;;3.08;1.70;;;;;;;;;;5093496;28;20051;-78
2023/10/07 14:47:01;;;;;;;1.75;1.25;;;;;;;;;;5092964;28;20029;-74
2023/10/07 14:49:28;;;;;;;1.20;0.90;;;;;;;;;;5094345;28;20073;-75
2023/10/07 14:51:54;;;;;;;5.18;1.20;;;;;;;;;;5094075;28;20023;-74
2023/10/07 14:54:21;;;;;;;4.80;1.10;;;;;;;;;;5094750;28;20421;-76
2023/10/07 14:56:47;;;;;;;6.72;1.52;;;;;;;;;;5092308;28;20047;-76
2023/10/07 14:59:15;;;;;;;7.00;2.35;;;;;;;;;;5091852;28;20468;-76
2023/10/07 15:01:41;;;;;;;4.65;1.80;;;;;;;;;;5092743;28;20379;-77
2023/10/07 15:04:07;;;;;;;4.20;2.00;;;;;;;;;;5092776;28;20084;-77
2023/10/07 15:06:33;;;;;;;7.53;1.88;;;;;;;;;;5094032;28;20503;-76
2023/10/07 15:08:59;;;;;;;7.03;1.77;;;;;;;;;;5092685;28;20518;-76
2023/10/07 15:11:25;;;;;;;9.75;1.73;;;;;;;;;;5093039;28;20024;-75
2023/10/07 15:13:51;;;;;;;7.78;3.08;;;;;;;;;;5094076;28;20455;-76
2023/10/07 15:16:18;;;;;;;6.25;1.60;;;;;;;;;;5092164;28;20490;-76
2023/10/07 15:18:45;;;;;;;6.40;1.58;;;;;;;;;;5093277;28;20032;-74
2023/10/07 15:21:11;;;;;;;7.00;1.85;;;;;;;;;;5093426;28;20020;-74
2023/10/07 15:23:41;;;;;;;3.25;1.63;;;;;;;;;;5093060;28;20032;-75
2023/10/07 15:26:16;;;;;;;5.05;2.00;;;;;;;;;;5091633;28;20028;-76
2023/10/07 15:28:43;;;;;;;7.22;2.17;;;;;;;;;;5091116;28;20020;-75
2023/10/07 15:31:09;;;;;;;6.55;1.70;;;;;;;;;;5090539;28;20047;-76
2023/10/07 15:33:36;;;;;;;9.70;2.53;;;;;;;;;;5092929;28;20032;-74
2023/10/07 15:36:03;;;;;;;5.60;2.17;;;;;;;;;;5090788;28;20053;-73
2023/10/07 15:38:29;;;;;;;4.82;1.70;;;;;;;;;;5091241;28;20031;-74
2023/10/07 15:40:57;;;;;;;4.40;1.63;;;;;;;;;;5091185;28;20031;-74